Time;durP1;ratioP1;P1;durP2;ratioP2;P2;SDS_P1;SDS_P2;PMS_P1;PMS_P2;Temp;Humidity;BMP_temperature;BMP_pressure;BME280_temperature;BME280_humidity;BME280_pressure;Samples;Min_cycle;Max_cycle;Signal;HPM_P1;HPM_P2
2022/11/07 00:02:04;;;;;;;;;;;;;;;24.68;48.60;94318.59;4951465;28;9068;-86
2022/11/07 00:04:30;;;;;;;;;;;;;;;24.67;48.46;94322.59;4955564;28;8743;-85
2022/11/07 00:07:00;;;;;;;;;;;;;;;24.68;48.74;94319.34;4942448;28;9071;-85
2022/11/07 00:09:26;;;;;;;;;;;;;;;24.66;48.25;94327.34;4947172;28;9024;-85
2022/11/07 00:11:54;;;;;;;;;;;;;;;24.66;48.28;94323.88;4967137;28;8877;-86
2022/11/07 00:14:25;;;;;;;;;;;;;;;24.67;48.07;94337.09;4953236;28;9700;-85
2022/11/07 00:16:52;;;;;;;;;;;;;;;24.68;48.40;94329.63;4958287;28;9122;-85
2022/11/07 00:19:20;;;;;;;;;;;;;;;24.68;47.85;94340.63;4952501;28;9041;-86
2022/11/07 00:21:51;;;;;;;;;;;;;;;24.67;47.91;94328.84;4959448;28;10097;-85
2022/11/07 00:24:17;;;;;;;;;;;;;;;24.66;48.13;94321.84;4996389;28;8913;-87
2022/11/07 00:26:48;;;;;;;;;;;;;;;24.66;48.53;94340.38;4978792;28;9144;-85
2022/11/07 00:29:20;;;;;;;;;;;;;;;24.67;48.44;94339.09;4979820;28;9009;-85
2022/11/07 00:31:51;;;;;;;;;;;;;;;24.65;48.58;94336.13;4981204;28;9386;-85
2022/11/07 00:34:20;;;;;;;;;;;;;;;24.66;48.08;94341.09;4977947;28;8747;-87
2022/11/07 00:36:46;;;;;;;;;;;;;;;24.63;47.92;94333.88;4995158;28;9026;-86
2022/11/07 00:39:12;;;;;;;;;;;;;;;24.61;48.19;94333.63;4979007;28;9000;-85
2022/11/07 00:41:38;;;;;;;;;;;;;;;24.64;48.70;94332.59;4994084;28;9160;-85
2022/11/07 00:44:06;;;;;;;;;;;;;;;24.63;48.44;94350.38;4978975;28;7193;-85
2022/11/07 00:46:32;;;;;;;;;;;;;;;24.63;48.70;94339.38;4981003;28;7074;-85
2022/11/07 00:49:00;;;;;;;;;;;;;;;24.63;48.34;94339.38;4984712;28;8719;-85
2022/11/07 00:51:29;;;;;;;;;;;;;;;24.63;47.91;94339.38;4973861;28;8970;-86
2022/11/07 00:53:55;;;;;;;;;;;;;;;24.64;48.04;94332.59;4980045;28;7523;-85
2022/11/07 00:56:26;;;;;;;;;;;;;;;24.65;48.94;94338.88;4972307;28;10461;-85
2022/11/07 00:58:54;;;;;;;;;;;;;;;24.64;48.48;94329.84;4979141;28;9013;-84
2022/11/07 01:01:30;;;;;;;;;;;;;;;24.63;48.61;94333.88;4982106;28;9072;-85
2022/11/07 01:06:42;;;;;;;;;;;;;;;24.64;48.20;94338.09;4992438;28;9008;-86
2022/11/07 01:09:12;;;;;;;;;;;;;;;24.62;48.08;94337.88;4980901;28;7078;-86
2022/11/07 01:11:39;;;;;;;;;;;;;;;24.64;48.73;94338.09;4976620;28;8947;-86
2022/11/07 01:14:11;;;;;;;;;;;;;;;24.62;48.91;94351.63;4978357;28;8699;-86
2022/11/07 01:16:42;;;;;;;;;;;;;;;24.62;48.16;94354.38;4986108;28;7083;-85
2022/11/07 01:19:13;;;;;;;;;;;;;;;24.60;48.55;94348.63;4975151;28;9091;-85
2022/11/07 01:21:46;;;;;;;;;;;;;;;24.62;48.79;94351.63;4985486;28;7652;-85
2022/11/07 01:24:17;;;;;;;;;;;;;;;24.63;48.75;94353.13;4981106;28;10366;-86
2022/11/07 01:26:47;;;;;;;;;;;;;;;24.62;48.58;94356.38;4984566;28;8827;-85
2022/11/07 01:29:18;;;;;;;;;;;;;;;24.58;48.17;94353.13;4979233;28;9034;-85
2022/11/07 01:31:45;;;;;;;;;;;;;;;24.61;48.39;94358.38;4985992;28;7976;-85
2022/11/07 01:34:11;;;;;;;;;;;;;;;24.60;48.49;94350.63;4979374;28;9108;-85
2022/11/07 01:36:38;;;;;;;;;;;;;;;24.59;48.17;94349.13;4976463;28;9110;-85
2022/11/07 01:39:06;;;;;;;;;;;;;;;24.62;48.33;94348.88;4992484;28;7239;-85
2022/11/07 01:41:39;;;;;;;;;;;;;;;24.62;48.41;94354.38;4981286;28;9317;-86
2022/11/07 01:44:05;;;;;;;;;;;;;;;24.61;48.25;94350.13;4977288;28;8999;-85
2022/11/07 01:46:31;;;;;;;;;;;;;;;24.62;48.74;94346.13;4977926;28;7028;-85
2022/11/07 01:49:22;;;;;;;;;;;;;;;24.61;48.13;94343.88;4981573;28;7261;-85
2022/11/07 01:51:51;;;;;;;;;;;;;;;24.62;48.11;94357.13;4956096;28;7319;-85
2022/11/07 01:54:25;;;;;;;;;;;;;;;24.58;48.13;94348.38;4977433;28;8725;-85
2022/11/07 01:56:58;;;;;;;;;;;;;;;24.61;48.57;94357.63;4970198;28;9046;-85
2022/11/07 01:59:29;;;;;;;;;;;;;;;24.59;48.39;94349.91;4976834;28;8764;-85
2022/11/07 02:01:56;;;;;;;;;;;;;;;24.61;48.59;94347.38;4978112;28;8776;-86
2022/11/07 02:04:30;;;;;;;;;;;;;;;24.59;48.45;94338.13;4985529;28;7247;-85
2022/11/07 02:07:05;;;;;;;;;;;;;;;24.58;48.43;94344.88;4977780;28;9109;-87
2022/11/07 02:09:30;;;;;;;;;;;;;;;24.59;48.29;94340.88;4989968;28;9060;-85
2022/11/07 02:11:59;;;;;;;;;;;;;;;24.59;48.46;94341.66;4976298;28;9076;-86
2022/11/07 02:14:27;;;;;;;;;;;;;;;24.55;48.41;94326.66;4976318;28;7364;-85
2022/11/07 02:16:55;;;;;;;;;;;;;;;24.59;48.12;94327.91;4978131;28;8766;-86
2022/11/07 02:19:35;;;;;;;;;;;;;;;24.58;48.30;94340.13;4977727;28;8738;-85
2022/11/07 02:22:27;;;;;;;;;;;;;;;24.57;48.17;94337.91;4990953;28;9103;-85
2022/11/07 02:24:59;;;;;;;;;;;;;;;24.57;48.45;94340.66;4993211;28;9127;-86
2022/11/07 02:27:35;;;;;;;;;;;;;;;24.56;48.67;94339.91;4987381;28;9086;-86
2022/11/07 02:30:17;;;;;;;;;;;;;;;24.56;48.64;94333.63;4977365;28;9009;-85
2022/11/07 02:32:44;;;;;;;;;;;;;;;24.58;48.29;94323.63;4977610;28;8773;-85
2022/11/07 02:35:37;;;;;;;;;;;;;;;24.58;47.79;94337.38;4978252;28;9159;-85
2022/11/07 02:38:12;;;;;;;;;;;;;;;24.57;48.17;94335.91;4977405;28;7042;-85
2022/11/07 02:40:38;;;;;;;;;;;;;;;24.54;48.13;94327.91;4975053;28;8733;-85
2022/11/07 02:43:13;;;;;;;;;;;;;;;24.55;48.43;94321.16;4967178;28;8764;-86
2022/11/07 02:45:46;;;;;;;;;;;;;;;24.56;47.86;94331.66;4978546;28;8734;-87
2022/11/07 02:48:13;;;;;;;;;;;;;;;24.56;48.33;94325.38;4975779;28;9054;-86
2022/11/07 02:50:40;;;;;;;;;;;;;;;24.56;48.01;94320.66;4970710;28;9011;-86
2022/11/07 02:53:10;;;;;;;;;;;;;;;24.56;48.05;94317.91;4972176;28;7233;-85
2022/11/07 02:55:41;;;;;;;;;;;;;;;24.53;48.15;94307.91;4974346;28;9025;-85
2022/11/07 02:58:09;;;;;;;;;;;;;;;24.52;48.13;94305.66;4992382;28;9032;-85
2022/11/07 03:00:38;;;;;;;;;;;;;;;24.55;48.69;94304.66;4993284;28;7034;-85
2022/11/07 03:03:09;;;;;;;;;;;;;;;24.53;48.12;94299.66;4969009;28;8771;-86
2022/11/07 03:05:38;;;;;;;;;;;;;;;24.55;47.99;94304.66;4994973;28;9015;-85
2022/11/07 03:08:11;;;;;;;;;;;;;;;24.49;48.46;94296.41;4976099;28;8615;-85
2022/11/07 03:10:37;;;;;;;;;;;;;;;24.50;48.13;94297.94;4978398;28;8708;-85
2022/11/07 03:13:03;;;;;;;;;;;;;;;24.55;48.20;94307.41;4977898;28;8606;-85
2022/11/07 03:15:28;;;;;;;;;;;;;;;24.55;47.91;94304.66;4975210;28;7346;-85
2022/11/07 03:17:57;;;;;;;;;;;;;;;24.56;48.38;94306.91;4976090;28;10610;-86
2022/11/07 03:20:23;;;;;;;;;;;;;;;24.49;48.03;94301.19;4977560;28;9108;-86
2022/11/07 03:22:49;;;;;;;;;;;;;;;24.50;48.05;94314.44;4974046;28;9177;-85
2022/11/07 03:25:15;;;;;;;;;;;;;;;24.56;48.17;94311.66;4981392;28;8803;-85
2022/11/07 03:27:46;;;;;;;;;;;;;;;24.49;47.87;94304.66;4976370;28;9341;-86
2022/11/07 03:30:16;;;;;;;;;;;;;;;24.51;48.26;94315.91;4974106;28;8741;-87
2022/11/07 03:32:53;;;;;;;;;;;;;;;24.52;47.78;94320.16;4967267;28;6872;-85
2022/11/07 03:35:22;;;;;;;;;;;;;;;24.52;48.14;94306.41;4968661;28;7536;-84
2022/11/07 03:37:49;;;;;;;;;;;;;;;24.53;47.99;94307.91;4978498;28;9387;-85
2022/11/07 03:40:16;;;;;;;;;;;;;;;24.55;47.45;94304.66;4977771;28;6871;-85
2022/11/07 03:42:45;;;;;;;;;;;;;;;24.48;48.06;94300.44;4979110;28;8723;-85
2022/11/07 03:45:15;;;;;;;;;;;;;;;24.49;47.99;94301.19;4979079;28;8763;-85
2022/11/07 03:47:43;;;;;;;;;;;;;;;24.51;48.50;94309.69;4979660;28;7329;-86
2022/11/07 03:50:13;;;;;;;;;;;;;;;24.49;47.91;94312.19;4978155;28;7347;-85
2022/11/07 03:52:40;;;;;;;;;;;;;;;24.51;48.02;94317.94;4979962;28;8755;-85
2022/11/07 03:55:09;;;;;;;;;;;;;;;24.51;47.81;94320.69;4979079;28;8675;-85
2022/11/07 03:57:35;;;;;;;;;;;;;;;24.45;48.00;94309.69;4995100;28;9008;-85
2022/11/07 04:00:04;;;;;;;;;;;;;;;24.48;47.71;94314.19;4978438;28;9079;-85
2022/11/07 04:02:35;;;;;;;;;;;;;;;24.52;48.35;94324.91;4980097;28;7251;-85
2022/11/07 04:05:01;;;;;;;;;;;;;;;24.48;47.98;94319.69;4979412;28;9021;-86
2022/11/07 04:07:29;;;;;;;;;;;;;;;24.51;47.62;94328.94;4978772;28;8890;-85
2022/11/07 04:09:59;;;;;;;;;;;;;;;24.47;47.59;94326.41;4976497;28;8810;-85
2022/11/07 04:17:55;;;;;;;;;;;;;;;24.49;47.98;94342.44;4995012;28;8760;-86
2022/11/07 04:20:24;;;;;;;;;;;;;;;24.50;47.52;94352.91;4983171;28;8792;-87
2022/11/07 04:22:55;;;;;;;;;;;;;;;24.48;48.55;94341.69;4972046;28;9400;-85
2022/11/07 04:28:10;;;;;;;;;;;;;;;24.47;48.08;94342.16;4990509;28;9330;-86
2022/11/07 04:30:38;;;;;;;;;;;;;;;24.45;48.22;94345.44;4973746;28;7287;-85
2022/11/07 04:33:04;;;;;;;;;;;;;;;24.46;48.00;94344.19;4994981;28;8680;-85
2022/11/07 04:35:32;;;;;;;;;;;;;;;24.47;48.23;94336.66;4977983;28;8783;-85
2022/11/07 04:38:00;;;;;;;;;;;;;;;24.44;48.10;94338.44;4978168;28;9078;-85
2022/11/07 04:40:28;;;;;;;;;;;;;;;24.46;47.91;94346.94;4974741;28;8595;-85
2022/11/07 04:42:54;;;;;;;;;;;;;;;24.47;48.01;94351.16;4973608;28;9122;-86
2022/11/07 04:45:20;;;;;;;;;;;;;;;24.43;48.24;94353.44;4972979;28;9077;-85
2022/11/07 04:47:47;;;;;;;;;;;;;;;24.46;48.19;94366.19;4978149;28;8482;-85
2022/11/07 04:50:15;;;;;;;;;;;;;;;24.46;48.21;94368.16;4971274;28;8717;-85
2022/11/07 04:52:41;;;;;;;;;;;;;;;24.46;47.90;94362.69;4978676;28;9021;-87
2022/11/07 04:55:20;;;;;;;;;;;;;;;24.42;47.83;94357.44;4996171;28;7235;-85
2022/11/07 04:57:50;;;;;;;;;;;;;;;24.47;47.52;94364.91;4978462;28;9039;-85
2022/11/07 05:00:21;;;;;;;;;;;;;;;24.43;47.58;94360.94;4976769;28;9030;-85
2022/11/07 05:02:49;;;;;;;;;;;;;;;24.44;47.68;94357.69;4979810;28;9298;-87
2022/11/07 05:05:21;;;;;;;;;;;;;;;24.46;48.16;94357.94;4995546;28;9026;-85
2022/11/07 05:07:49;;;;;;;;;;;;;;;24.45;47.95;94364.66;4978282;28;8630;-85
2022/11/07 05:10:27;;;;;;;;;;;;;;;24.43;47.61;94363.66;4977977;28;9357;-85
2022/11/07 05:12:56;;;;;;;;;;;;;;;24.46;48.08;94374.44;4966736;28;8659;-86
2022/11/07 05:15:27;;;;;;;;;;;;;;;24.46;47.67;94371.69;4980340;28;9344;-85
2022/11/07 05:17:53;;;;;;;;;;;;;;;24.45;48.10;94367.41;4978409;28;7077;-85
2022/11/07 05:20:50;;;;;;;;;;;;;;;24.45;48.48;94370.16;4979120;28;9000;-86
2022/11/07 05:23:17;;;;;;;;;;;;;;;24.43;47.62;94369.94;4908873;29;9300;-85
2022/11/07 05:25:53;;;;;;;;;;;;;;;24.44;47.71;94371.44;4910325;29;9596;-86
2022/11/07 05:28:23;;;;;;;;;;;;;;;24.45;47.34;94372.91;4925694;29;8695;-85
2022/11/07 05:30:51;;;;;;;;;;;;;;;24.46;48.04;94362.69;4918791;28;7259;-85
2022/11/07 05:33:20;;;;;;;;;;;;;;;24.44;48.10;94365.94;4917166;29;7452;-85
2022/11/07 05:35:45;;;;;;;;;;;;;;;24.46;51.40;94362.69;4917177;29;9386;-86
2022/11/07 05:38:12;;;;;;;;;;;;;;;24.57;50.24;94371.66;4922745;29;8987;-85
2022/11/07 05:40:39;;;;;;;;;;;;;;;24.59;49.17;94362.88;4915000;29;7124;-85
2022/11/07 05:43:09;;;;;;;;;;;;;;;24.57;48.86;94368.91;4914999;29;10082;-86
2022/11/07 05:45:39;;;;;;;;;;;;;;;24.58;47.46;94370.38;4924841;29;8995;-84
2022/11/07 05:48:08;;;;;;;;;;;;;;;24.62;47.55;94370.13;4938697;28;8796;-85
2022/11/07 05:50:38;;;;;;;;;;;;;;;24.63;47.61;94375.13;4924251;29;9463;-87
2022/11/07 05:53:04;;;;;;;;;;;;;;;24.66;47.03;94374.09;4933160;29;8961;-84
2022/11/07 05:55:32;;;;;;;;;;;;;;;24.68;46.97;94379.84;4924939;29;6878;-86
2022/11/07 05:57:58;;;;;;;;;;;;;;;24.68;46.81;94371.59;4942023;29;8736;-85
2022/11/07 06:00:25;;;;;;;;;;;;;;;24.73;47.38;94376.34;4990729;28;7031;-87
2022/11/07 06:02:56;;;;;;;;;;;;;;;24.67;47.00;94370.13;4992834;28;7044;-89
2022/11/07 06:05:22;;;;;;;;;;;;;;;24.67;47.75;94369.34;4989080;28;7226;-85
2022/11/07 06:07:48;;;;;;;;;;;;;;;24.74;47.61;94377.09;4991380;28;8827;-85
2022/11/07 06:10:14;;;;;;;;;;;;;;;24.75;47.57;94373.09;4985223;28;7035;-85
2022/11/07 06:12:40;;;;;;;;;;;;;;;24.81;47.38;94375.84;4979726;28;8731;-86
2022/11/07 06:15:06;;;;;;;;;;;;;;;24.76;47.18;94371.84;4985200;28;8710;-85
2022/11/07 06:17:32;;;;;;;;;;;;;;;24.77;46.28;94370.63;4977644;28;7274;-85
2022/11/07 06:19:58;;;;;;;;;;;;;;;24.75;46.47;94386.13;4982513;28;7029;-85
2022/11/07 06:22:26;;;;;;;;;;;;;;;24.77;46.10;94386.38;4985638;28;9025;-85
2022/11/07 06:24:52;;;;;;;;;;;;;;;24.71;45.86;94367.09;5003362;28;9343;-86
2022/11/07 06:27:19;;;;;;;;;;;;;;;24.75;46.14;94386.84;5004094;28;8815;-84
2022/11/07 06:29:50;;;;;;;;;;;;;;;24.74;45.79;94393.59;4988939;28;9374;-84
2022/11/07 06:32:18;;;;;;;;;;;;;;;24.71;46.78;94376.09;4983083;28;8775;-86
2022/11/07 06:34:49;;;;;;;;;;;;;;;24.72;46.43;94374.09;4976379;28;9092;-84
2022/11/07 06:37:16;;;;;;;;;;;;;;;24.68;45.68;94381.88;4997876;28;9363;-85
2022/11/07 06:39:41;;;;;;;;;;;;;;;24.66;46.22;94387.84;4982097;28;9023;-85
2022/11/07 06:42:07;;;;;;;;;;;;;;;24.66;46.08;94390.59;4981173;28;9077;-86
2022/11/07 06:44:38;;;;;;;;;;;;;;;24.69;46.89;94397.09;4983115;28;9133;-86
2022/11/07 06:47:04;;;;;;;;;;;;;;;24.67;46.67;94394.88;4993223;28;9062;-84
2022/11/07 06:49:31;;;;;;;;;;;;;;;24.70;46.14;94393.09;4983617;28;7261;-85
2022/11/07 06:51:57;;;;;;;;;;;;;;;24.68;46.58;94396.34;4999480;28;8721;-85
2022/11/07 06:54:24;;;;;;;;;;;;;;;24.67;46.25;94394.88;4980170;28;8741;-84
2022/11/07 06:56:54;;;;;;;;;;;;;;;24.64;47.11;94401.38;4983427;28;9035;-86
2022/11/07 06:59:23;;;;;;;;;;;;;;;24.65;46.61;94402.13;4985104;28;9431;-84
2022/11/07 07:01:50;;;;;;;;;;;;;;;24.67;46.91;94408.63;4980322;28;9053;-85
2022/11/07 07:04:18;;;;;;;;;;;;;;;24.67;46.90;94407.84;4990534;28;7348;-86
2022/11/07 07:06:44;;;;;;;;;;;;;;;24.68;46.81;94415.59;4996624;28;8838;-84
2022/11/07 07:09:11;;;;;;;;;;;;;;;24.67;46.79;94411.38;4994745;28;8816;-85
2022/11/07 07:11:43;;;;;;;;;;;;;;;24.67;46.73;94419.63;4983155;28;9201;-86
2022/11/07 07:14:14;;;;;;;;;;;;;;;24.67;46.85;94422.38;5000466;28;9013;-85
2022/11/07 07:16:42;;;;;;;;;;;;;;;24.64;46.52;94428.88;4986309;28;9073;-86
2022/11/07 07:19:13;;;;;;;;;;;;;;;24.68;46.64;94447.88;4983467;28;9110;-85
2022/11/07 07:21:39;;;;;;;;;;;;;;;24.61;46.90;94440.13;5001474;28;9065;-86
2022/11/07 07:24:05;;;;;;;;;;;;;;;24.60;47.23;94444.88;4985690;28;6853;-84
2022/11/07 07:26:31;;;;;;;;;;;;;;;24.57;46.62;94450.63;4971479;28;8337;-84
2022/11/07 07:29:02;;;;;;;;;;;;;;;24.54;46.81;94463.38;4991108;28;8757;-86
2022/11/07 07:31:32;;;;;;;;;;;;;;;24.54;46.87;94457.88;4998741;28;8752;-85
2022/11/07 07:34:01;;;;;;;;;;;;;;;24.56;47.65;94462.88;4986867;28;9034;-85
2022/11/07 07:36:29;;;;;;;;;;;;;;;24.52;47.21;94463.16;4984921;28;9041;-85
2022/11/07 07:38:59;;;;;;;;;;;;;;;24.52;47.60;94474.16;4986429;28;8855;-85
2022/11/07 07:41:25;;;;;;;;;;;;;;;24.52;46.97;94471.41;4984200;28;8604;-86
2022/11/07 07:43:53;;;;;;;;;;;;;;;24.51;47.59;94471.91;4987282;28;7027;-85
2022/11/07 07:46:25;;;;;;;;;;;;;;;24.50;47.52;94467.66;4985838;28;9274;-84
2022/11/07 07:48:51;;;;;;;;;;;;;;;24.50;47.07;94473.13;4986813;28;7279;-86
2022/11/07 07:51:17;;;;;;;;;;;;;;;24.48;47.52;94464.66;4996981;28;9089;-84
2022/11/07 07:53:46;;;;;;;;;;;;;;;24.47;47.26;94465.88;4984769;28;9271;-86
2022/11/07 07:56:19;;;;;;;;;;;;;;;24.48;47.60;94470.16;5001412;28;6911;-84
2022/11/07 07:58:47;;;;;;;;;;;;;;;24.46;47.57;94467.91;4995494;28;9779;-86
2022/11/07 08:01:15;;;;;;;;;;;;;;;24.51;47.52;94474.66;4983230;28;8795;-85
2022/11/07 08:03:41;;;;;;;;;;;;;;;24.50;47.65;94479.41;4986565;28;9116;-84
2022/11/07 08:06:10;;;;;;;;;;;;;;;24.51;47.53;94486.38;4986652;28;8839;-85
2022/11/07 08:08:38;;;;;;;;;;;;;;;24.51;47.49;94491.88;4985118;28;9043;-84
2022/11/07 08:11:09;;;;;;;;;;;;;;;24.51;47.78;94489.13;4992444;28;8836;-84
2022/11/07 08:13:37;;;;;;;;;;;;;;;24.52;47.70;94487.88;4985221;28;9034;-84
2022/11/07 08:16:16;;;;;;;;;;;;;;;24.51;47.85;94486.38;4981239;28;7096;-85
2022/11/07 08:18:41;;;;;;;;;;;;;;;24.54;47.68;94479.88;5001002;28;9008;-84
2022/11/07 08:21:09;;;;;;;;;;;;;;;24.53;47.14;94481.13;4981353;28;7098;-86
2022/11/07 08:23:35;;;;;;;;;;;;;;;24.51;47.45;94480.88;4976532;28;9031;-86
2022/11/07 08:26:03;;;;;;;;;;;;;;;24.57;47.60;94478.13;4995110;28;8722;-86
2022/11/07 08:28:33;;;;;;;;;;;;;;;24.59;47.41;94481.13;4982885;28;9049;-84
2022/11/07 08:31:02;;;;;;;;;;;;;;;24.53;47.09;94470.13;4982541;28;8710;-84
2022/11/07 08:33:33;;;;;;;;;;;;;;;24.60;47.06;94477.88;5000443;28;7257;-84
2022/11/07 08:36:02;;;;;;;;;;;;;;;24.62;47.40;94472.63;4980825;28;7245;-85
2022/11/07 08:38:33;;;;;;;;;;;;;;;24.63;47.60;94476.88;4986109;28;9015;-85
2022/11/07 08:41:02;;;;;;;;;;;;;;;24.63;47.15;94476.88;4984961;28;9337;-84
2022/11/07 08:43:28;;;;;;;;;;;;;;;24.60;47.34;94471.63;4979513;28;9025;-84
2022/11/07 08:45:57;;;;;;;;;;;;;;;24.66;47.07;94477.88;4986018;28;9002;-85
2022/11/07 08:48:29;;;;;;;;;;;;;;;24.69;47.47;94474.88;4986224;28;8741;-84
2022/11/07 08:51:01;;;;;;;;;;;;;;;24.69;47.70;94480.38;4978480;28;7025;-84
2022/11/07 08:53:28;;;;;;;;;;;;;;;24.70;47.30;94472.88;4982320;28;8930;-84
2022/11/07 08:56:07;;;;;;;;;;;;;;;24.70;47.14;94470.88;4983390;28;8277;-86
2022/11/07 08:58:44;;;;;;;;;;;;;;;24.73;47.65;94473.88;4996250;28;7262;-84
2022/11/07 09:01:15;;;;;;;;;;;;;;;24.70;47.20;94475.63;4981488;28;9009;-85
2022/11/07 09:03:41;;;;;;;;;;;;;;;24.67;47.77;94460.88;4973536;28;7036;-84
2022/11/07 09:06:09;;;;;;;;;;;;;;;24.64;47.27;94466.63;4982427;28;8740;-84
2022/11/07 09:08:35;;;;;;;;;;;;;;;24.73;47.67;94460.13;4984959;28;6998;-86
2022/11/07 09:11:09;;;;;;;;;;;;;;;24.70;47.12;94459.88;4984084;28;7112;-85
2022/11/07 09:13:35;;;;;;;;;;;;;;;24.73;47.01;94475.34;4983183;28;9302;-85
2022/11/07 09:16:03;;;;;;;;;;;;;;;24.75;47.21;94471.41;4978330;28;9360;-85
2022/11/07 09:18:35;;;;;;;;;;;;;;;24.76;47.70;94472.88;4984537;28;9133;-85
2022/11/07 09:21:02;;;;;;;;;;;;;;;24.80;47.12;94478.88;4982934;28;8790;-84
2022/11/07 09:23:28;;;;;;;;;;;;;;;24.80;47.29;94474.13;4986360;28;7211;-85
2022/11/07 09:25:57;;;;;;;;;;;;;;;24.82;47.25;94470.84;4982785;28;8712;-86
2022/11/07 09:28:23;;;;;;;;;;;;;;;24.84;46.77;94480.09;4982698;28;8682;-85
2022/11/07 09:30:56;;;;;;;;;;;;;;;24.84;47.20;94473.88;4982810;28;7254;-85
2022/11/07 09:33:23;;;;;;;;;;;;;;;24.86;46.95;94471.38;4981563;28;7253;-85
2022/11/07 09:35:50;;;;;;;;;;;;;;;24.89;47.07;94484.84;4987937;28;9109;-84
2022/11/07 09:38:17;;;;;;;;;;;;;;;24.90;47.22;94477.38;4988181;28;6907;-85
2022/11/07 09:40:53;;;;;;;;;;;;;;;24.91;46.44;94485.09;4980626;28;9369;-84
2022/11/07 09:43:58;;;;;;;;;;;;;;;24.93;46.83;94485.34;4978795;28;8548;-85
2022/11/07 09:46:45;;;;;;;;;;;;;;;24.97;46.48;94493.38;4978956;28;8707;-85
2022/11/07 09:49:23;;;;;;;;;;;;;;;24.99;46.57;94485.34;4980093;28;8696;-85
2022/11/07 09:52:30;;;;;;;;;;;;;;;25.01;46.92;94485.59;4976585;28;9288;-84
2022/11/07 09:55:28;;;;;;;;;;;;;;;25.04;46.87;94482.56;4983343;28;8764;-84
2022/11/07 09:58:02;;;;;;;;;;;;;;;25.06;46.31;94485.56;4938796;28;7176;-84
2022/11/07 10:00:32;;;;;;;;;;;;;;;25.07;46.28;94492.59;4922419;28;9020;-84
2022/11/07 10:03:03;;;;;;;;;;;;;;;25.09;46.19;94486.56;4935480;29;7241;-85
2022/11/07 10:05:51;;;;;;;;;;;;;;;25.08;46.58;94488.56;4922258;29;8911;-84
2022/11/07 10:08:42;;;;;;;;;;;;;;;25.11;46.17;94481.31;4939975;28;8782;-85
2022/11/07 10:11:36;;;;;;;;;;;;;;;25.10;46.51;94502.56;4938675;29;10077;-85
2022/11/07 10:14:13;;;;;;;;;;;;;;;25.11;46.17;94495.81;4935741;29;7256;-85
2022/11/07 10:16:49;;;;;;;;;;;;;;;25.13;47.10;94495.31;4938383;29;9032;-84
2022/11/07 10:19:15;;;;;;;;;;;;;;;25.16;46.38;94497.06;4940584;28;8923;-85
2022/11/07 10:22:02;;;;;;;;;;;;;;;25.16;46.47;94492.31;4939628;29;8655;-84
2022/11/07 10:24:43;;;;;;;;;;;;;;;25.18;46.55;94491.78;4924379;29;7279;-85
2022/11/07 10:27:10;;;;;;;;;;;;;;;25.18;46.42;94481.53;4938051;28;8990;-84
2022/11/07 10:29:52;;;;;;;;;;;;;;;25.19;46.17;94482.25;4938965;29;8879;-84
2022/11/07 10:32:39;;;;;;;;;;;;;;;25.19;46.25;94474.00;4941107;29;7384;-87
2022/11/07 10:35:31;;;;;;;;;;;;;;;25.23;46.27;94474.50;4970132;28;9333;-85
2022/11/07 10:38:00;;;;;;;;;;;;;;;25.20;46.44;94478.28;4982699;28;7038;-86
2022/11/07 10:40:34;;;;;;;;;;;;;;;25.21;46.60;94475.00;4982863;28;8717;-85
2022/11/07 10:43:14;;;;;;;;;;;;;;;25.19;46.49;94465.75;4984315;28;7037;-85
2022/11/07 10:45:41;;;;;;;;;;;;;;;25.21;46.01;94466.00;4983874;28;9342;-85
2022/11/07 10:48:14;;;;;;;;;;;;;;;25.23;46.81;94471.72;4983896;28;7454;-85
2022/11/07 10:50:52;;;;;;;;;;;;;;;25.23;46.05;94463.47;5003508;28;9407;-85
2022/11/07 10:53:20;;;;;;;;;;;;;;;25.24;45.80;94465.75;5002634;28;8981;-84
2022/11/07 10:55:52;;;;;;;;;;;;;;;25.24;46.21;94462.22;4980485;28;7271;-84
2022/11/07 10:58:22;;;;;;;;;;;;;;;25.21;46.20;94452.22;4983163;28;8984;-85
2022/11/07 11:01:07;;;;;;;;;;;;;;;25.27;46.63;94464.72;4986253;28;9036;-85
2022/11/07 11:03:39;;;;;;;;;;;;;;;25.27;45.80;94455.72;4999788;28;9175;-85
2022/11/07 11:06:11;;;;;;;;;;;;;;;25.27;46.56;94452.97;4984654;28;8980;-85
2022/11/07 11:08:37;;;;;;;;;;;;;;;25.30;45.90;94443.69;4987745;28;7024;-85
2022/11/07 11:11:27;;;;;;;;;;;;;;;25.30;46.67;94449.94;5007340;28;6989;-85
2022/11/07 11:14:11;;;;;;;;;;;;;;;25.29;46.79;94453.22;5004837;28;9295;-85
2022/11/07 11:16:41;;;;;;;;;;;;;;;25.29;47.16;94448.44;5004674;28;7121;-85
2022/11/07 11:19:22;;;;;;;;;;;;;;;25.28;46.53;94449.72;4990174;28;6995;-85
2022/11/07 11:21:56;;;;;;;;;;;;;;;25.29;46.60;94447.72;4983723;28;9413;-85
2022/11/07 11:24:28;;;;;;;;;;;;;;;25.32;45.86;94444.69;4989590;28;8728;-85
2022/11/07 11:27:11;;;;;;;;;;;;;;;25.33;46.68;94442.69;4987916;28;8603;-86
2022/11/07 11:29:40;;;;;;;;;;;;;;;25.34;46.58;94438.66;4990643;28;6882;-86
2022/11/07 11:32:25;;;;;;;;;;;;;;;25.36;45.85;94441.66;5004229;28;9018;-86
2022/11/07 11:35:04;;;;;;;;;;;;;;;25.39;46.23;94429.63;5006346;28;8704;-85
2022/11/07 11:37:37;;;;;;;;;;;;;;;25.40;45.85;94428.38;4996541;28;8600;-86
2022/11/07 11:40:07;;;;;;;;;;;;;;;25.41;45.96;94419.59;4993229;28;8672;-86
2022/11/07 11:42:50;;;;;;;;;;;;;;;25.42;46.00;94417.63;4991988;28;7024;-85
2022/11/07 11:45:34;;;;;;;;;;;;;;;25.42;46.06;94417.63;4991274;28;9208;-86
2022/11/07 11:48:06;;;;;;;;;;;;;;;25.43;45.15;94430.13;4992534;28;7036;-85
2022/11/07 11:50:51;;;;;;;;;;;;;;;25.42;46.06;94420.38;4989255;28;7062;-85
2022/11/07 11:53:22;;;;;;;;;;;;;;;25.45;45.87;94411.09;4987722;28;9023;-86
2022/11/07 11:56:09;;;;;;;;;;;;;;;25.48;44.71;94410.09;4996620;28;7276;-86
2022/11/07 11:59:00;;;;;;;;;;;;;;;25.51;45.08;94413.84;4991856;28;9286;-86
2022/11/07 12:01:46;;;;;;;;;;;;;;;25.47;45.64;94407.84;4988691;28;8969;-86
2022/11/07 12:04:17;;;;;;;;;;;;;;;25.49;45.28;94410.84;4993835;28;8698;-85
2022/11/07 12:06:49;;;;;;;;;;;;;;;25.49;45.26;94405.34;4993095;28;9048;-85
2022/11/07 12:09:35;;;;;;;;;;;;;;;25.54;45.96;94413.56;4986544;28;9023;-85
2022/11/07 12:12:07;;;;;;;;;;;;;;;25.52;45.03;94407.06;5005839;28;7297;-85
2022/11/07 12:14:52;;;;;;;;;;;;;;;25.52;45.70;94407.06;4980180;28;7042;-86
2022/11/07 12:17:36;;;;;;;;;;;;;;;25.54;46.23;94402.53;5005100;28;6857;-85
2022/11/07 12:20:26;;;;;;;;;;;;;;;25.53;45.75;94406.56;4991320;28;7277;-86
2022/11/07 12:23:16;;;;;;;;;;;;;;;25.51;45.40;94406.31;5002903;28;7286;-86
2022/11/07 12:25:57;;;;;;;;;;;;;;;25.51;45.54;94409.06;4991706;28;8991;-85
2022/11/07 12:28:44;;;;;;;;;;;;;;;25.57;46.02;94401.53;4993490;28;9019;-86
2022/11/07 12:31:39;;;;;;;;;;;;;;;25.59;45.69;94398.25;4994937;28;7111;-86
2022/11/07 12:34:20;;;;;;;;;;;;;;;25.62;46.53;94397.97;4995752;28;7110;-86
2022/11/07 12:37:20;;;;;;;;;;;;;;;25.65;45.57;94394.22;5009567;28;9190;-85
2022/11/07 12:40:03;;;;;;;;;;;;;;;25.63;45.51;94391.22;5001598;28;9177;-86
2022/11/07 12:43:01;;;;;;;;;;;;;;;25.61;45.80;94393.72;5012899;28;9053;-86
2022/11/07 12:45:39;;;;;;;;;;;;;;;25.62;46.63;94391.72;4993198;28;7291;-86
2022/11/07 12:48:28;;;;;;;;;;;;;;;25.65;46.20;94385.19;5005693;28;8054;-86
2022/11/07 12:51:33;;;;;;;;;;;;;;;25.67;46.27;94382.66;4994491;28;7350;-86
2022/11/07 12:54:36;;;;;;;;;;;;;;;25.68;46.34;94376.66;4996318;28;9000;-86
2022/11/07 12:57:18;;;;;;;;;;;;;;;25.73;45.88;94380.66;4983523;28;9323;-86
2022/11/07 12:59:58;;;;;;;;;;;;;;;25.75;46.16;94383.63;4994238;28;7344;-86
2022/11/07 13:02:36;;;;;;;;;;;;;;;25.81;45.54;94384.34;4994345;28;7287;-86
2022/11/07 13:05:08;;;;;;;;;;;;;;;25.84;45.43;94380.53;5011872;28;9351;-85
2022/11/07 13:08:06;;;;;;;;;;;;;;;25.87;45.82;94379.53;5010717;28;8626;-85
2022/11/07 13:10:48;;;;;;;;;;;;;;;25.91;45.50;94368.97;4995738;28;8996;-86
2022/11/07 13:13:26;;;;;;;;;;;;;;;25.92;45.61;94365.72;5007924;28;8710;-86
2022/11/07 13:15:52;;;;;;;;;;;;;;;25.94;45.57;94363.19;4993997;28;8710;-86
2022/11/07 13:18:31;;;;;;;;;;;;;;;25.98;45.46;94369.16;4995756;28;7240;-85
2022/11/07 13:21:03;;;;;;;;;;;;;;;26.00;45.55;94361.13;5009280;28;9008;-85
2022/11/07 13:23:32;;;;;;;;;;;;;;;26.04;45.25;94361.59;4996264;28;9328;-86
2022/11/07 13:26:04;;;;;;;;;;;;;;;26.08;45.72;94362.09;4996834;28;9195;-86
2022/11/07 13:28:55;;;;;;;;;;;;;;;26.08;45.06;94359.31;4993667;28;8788;-86
2022/11/07 13:31:52;;;;;;;;;;;;;;;26.11;45.99;94361.06;4992691;28;7306;-86
2022/11/07 13:34:18;;;;;;;;;;;;;;;26.14;45.35;94356.53;5009897;28;9156;-86
2022/11/07 13:36:49;;;;;;;;;;;;;;;26.18;45.75;94368.03;4990075;28;9288;-86